AirNav   Duncan Aviation - Near you to keep you flying
 
 495 users online  

SC01 Ashley Field Airport
Honea Path, South Carolina, USA

GOING TO HONEA PATH?


FAA INFORMATION EFFECTIVE 03 NOVEMBER 2022

Location

FAA Identifier: SC01
Lat/Long: 34-26-47.0000N 082-21-52.0000W
34-26.783333N 082-21.866667W
34.4463889,-82.3644444
(estimated)
Elevation: 777 ft. / 237 m (estimated)
From city: 1 mile SE of HONEA PATH, SC
Time zone: UTC -5 (UTC -4 during Daylight Saving Time)
Zip code: 29654

Airport Operations

Airport use: Private use. Permission required prior to landing
Activation date: 10/2014
Control tower: no
ARTCC: ATLANTA CENTER
FSS: ANDERSON FLIGHT SERVICE STATION
Attendance: UNATTND
Wind indicator: yes
Segmented circle: no

Airport Communications

WX ASOS at GRD (16 nm SE): 121.125 (864-388-9115)
WX ASOS at AND (17 nm W): 120.675 (864-226-9522)
WX AWOS-3 at GYH (19 nm N): 127.325 (864-277-5674)

Nearby radio navigation aids

VOR radial/distance  VOR name  Freq  Var
GRDr319/15.7GREENWOOD VORTAC115.5001W
ELWr086/20.9ELECTRIC CITY VORTAC108.6000E

 
NDB name  Hdg/Dist  Freq  Var  ID
ENOREE290/37.027807WEOE . --- .
UNION COUNTY254/38.432606WUOT ..- --- -

Airport Services

Runway Information

Runway 13/31

Dimensions: 3000 x 125 ft. / 914 x 38 m
Surface: turf, in good condition
Runway edge lights: non-standard
NSTD LOW INTENSITY LIGHTING SYSTEM - NOT COMMERCIAL GRADE.
RUNWAY 13  RUNWAY 31
Traffic pattern: leftleft

Runway 18/36

Dimensions: 2400 x 125 ft. / 732 x 38 m
Surface: turf, in good condition
Runway edge lights: non-standard
NSTD LOW INTENSITY LIGHTING SYSTEM - NOT COMMERCIAL GRADE.
RUNWAY 18  RUNWAY 36
Traffic pattern: leftleft

Airport Ownership and Management from official FAA records

Ownership: Privately-owned
Owner: LINDA A. BOLING
PO BOX 145
WARE SHOALS, SC 29692
Phone 864-861-2183
Manager: HONEA PATH FLYING CLUB
8577 HWY. 252
HONEA PATH, SC 29654
Phone 864-369-9386

Airport Operational Statistics

Aircraft based on the field: 12
Single engine airplanes: 12
    

Additional Remarks

FOR CD CTC ATLANTA ARTCC AT 770-210-7692.

Instrument Procedures

There are no published instrument procedures at SC01.

Some nearby airports with instrument procedures:

KGRD - Greenwood County Airport (16 nm SE)
KAND - Anderson Regional Airport (17 nm W)
KGYH - Donaldson Field Airport (19 nm N)
KLUX - Laurens County Airport (21 nm E)
KGMU - Greenville Downtown Airport (24 nm N)
 
Loc | Ops | Rwys | IFR | FBO | Links
Com | Nav | Svcs | Stats | Notes
Aerial photo
No photo
 
Airport distance calculator
Flying to Ashley Field Airport? Find the distance to fly.

From to SC01

Sunrise and sunset
Times for 27-Nov-2022
 Local
(UTC-5)
 Zulu
(UTC)
Morning civil twilight06:4811:48
Sunrise07:1512:15
Sunset17:1922:19
Evening civil twilight17:4622:46

Current date and time
Zulu (UTC)  27-Nov-2022 11:08:33
Local (UTC-5)  27-Nov-2022 06:08:33
 
METAR
KGRD 
16nm SE 
271056Z AUTO 11004KT 1 3/4SM +RA BR BKN004 OVC011 11/10 A2987 RMK AO2 SLP112 T01060100 PNO $
KAND 
18nm W 
271056Z AUTO 13005KT 9SM RA OVC004 13/12 A2981 RMK AO2 LTG DSNT SW CIG 003V008 SLP090 P0008 T01280122
KGYH 
19nm N 
271055Z AUTO 13008KT 10SM -RA OVC004 10/10 A2982 RMK A02 LTG DSNT W P0011 T01040103
KLUX 
21nm E 
271055Z AUTO 09004KT 3SM -RA OVC005 10/10 A2986 RMK AO2 LTG DSNT W P0018
KGMU 
24nm N 
271053Z AUTO 07008KT 5SM RA BR BKN003 OVC007 11/09 A2981 RMK AO2 CIG 002V005 SLP092 P0010 T01060094
KLQK 
27nm NW 
271055Z AUTO 10SM -RA BKN006 OVC010 10/10 A2983 RMK AO2 T01030103 PNO
KGSP 
28nm N 
271053Z AUTO 06009KT 4SM RA BR OVC005 09/08 A2982 RMK AO2 PRESFR SLP096 P0015 T00940083
KCEU 
29nm NW 
271054Z AUTO 07004KT 6SM RA BR OVC005 10/10 A2981 RMK AO2 PRESFR SLP090 P0006 T01000100
KEBA 
31nm SW 
271055Z AUTO 13009KT 100V170 7SM RA BR OVC003 13/13 A2980 RMK AO2 P0021 T01310128
TAF
KAND 
18nm W 
270953Z 2710/2806 07005KT 5SM -SHRA BR SCT004 OVC009 TEMPO 2710/2712 2SM SHRA OVC004 FM271200 09006KT 1SM SHRA BR VCTS OVC003CB WS020/19035KT FM271500 22007KT P6SM BKN007 FM271700 24012G24KT P6SM SCT110
NOTAMs
Click for the latest NOTAMs
NOTAMs are issued by the DoD/FAA and will open in a separate window not controlled by AirNav.

 

 
 

Would you like to see your business listed on this page?

 If your business provides an interesting product or service to pilots, flight crews, aircraft, or users of the Ashley Field Airport, you should consider listing it here.  To start the listing process, click on the button below
 
Add a business
 

Other Pages about Ashley Field Airport

Update a link
 
Copyright © AirNav, LLC. All rights reserved. Privacy Policy  Contact